Time;durP1;ratioP1;P1;durP2;ratioP2;P2;SDS_P1;SDS_P2;PMS_P1;PMS_P2;Temp;Humidity;BMP_temperature;BMP_pressure;BME280_temperature;BME280_humidity;BME280_pressure;Samples;Min_cycle;Max_cycle;Signal;HPM_P1;HPM_P2
2023/03/09 00:01:28;;;;;;;2.57;1.13;;;-1.50;99.90;;;;;;4963581;28;20146;-66
2023/03/09 00:03:56;;;;;;;1.23;0.38;;;-1.50;99.90;;;;;;4961012;28;20165;-66
2023/03/09 00:06:23;;;;;;;0.75;0.38;;;-1.50;99.90;;;;;;4962614;28;20090;-68
2023/03/09 00:08:50;;;;;;;2.25;0.82;;;-1.50;99.90;;;;;;4962257;28;20061;-66
2023/03/09 00:11:18;;;;;;;1.30;0.60;;;-1.50;99.90;;;;;;4963267;28;20055;-68
2023/03/09 00:13:48;;;;;;;0.75;0.50;;;-1.50;99.90;;;;;;4962815;28;20053;-68
2023/03/09 00:16:16;;;;;;;;;;;-1.50;99.90;;;;;;4961588;28;20129;-69
2023/03/09 00:18:43;;;;;;;0.85;0.63;;;-1.50;99.90;;;;;;4963349;28;19926;-67
2023/03/09 00:21:34;;;;;;;1.70;0.70;;;-1.50;99.90;;;;;;4961692;28;20061;-66
2023/03/09 00:24:13;;;;;;;1.08;0.60;;;-1.50;99.90;;;;;;4960353;28;20137;-66
2023/03/09 00:26:43;;;;;;;0.30;0.30;;;-1.50;99.90;;;;;;4962318;28;20054;-66
2023/03/09 00:29:12;;;;;;;0.93;0.68;;;-1.50;99.90;;;;;;4962236;28;20051;-68
2023/03/09 00:31:40;;;;;;;0.55;0.40;;;-1.50;99.90;;;;;;4962743;28;20177;-66
2023/03/09 00:34:08;;;;;;;1.42;0.57;;;-1.50;99.90;;;;;;4960105;28;20966;-67
2023/03/09 00:36:36;;;;;;;4.22;0.82;;;-1.50;99.90;;;;;;4961652;28;20491;-69
2023/03/09 00:39:04;;;;;;;1.45;0.60;;;-1.50;99.90;;;;;;4960546;28;20059;-68
2023/03/09 00:41:31;;;;;;;0.75;0.50;;;-1.60;99.90;;;;;;4959855;28;20078;-67
2023/03/09 00:44:02;;;;;;;0.68;0.30;;;-1.60;99.90;;;;;;4960161;28;20047;-67
2023/03/09 00:46:31;;;;;;;1.33;0.90;;;-1.50;99.90;;;;;;4962017;28;20047;-68
2023/03/09 00:49:00;;;;;;;0.85;0.50;;;-1.50;99.90;;;;;;4961964;28;20509;-69
2023/03/09 00:51:27;;;;;;;0.85;0.50;;;-1.50;99.90;;;;;;4962233;28;20062;-66
2023/03/09 00:53:55;;;;;;;1.50;0.50;;;-1.50;99.90;;;;;;4960539;28;20050;-65
2023/03/09 00:56:25;;;;;;;2.60;0.60;;;-1.60;99.90;;;;;;4960673;28;20054;-68
2023/03/09 00:58:54;;;;;;;1.20;0.57;;;-1.60;99.90;;;;;;4961657;28;20134;-68
2023/03/09 01:01:21;;;;;;;0.57;0.32;;;-1.60;99.90;;;;;;4960840;28;20047;-67
2023/03/09 01:03:48;;;;;;;0.88;0.88;;;-1.60;99.90;;;;;;4961348;28;20046;-66
2023/03/09 01:06:16;;;;;;;3.30;1.10;;;-1.60;99.90;;;;;;4959409;28;20521;-67
2023/03/09 01:08:45;;;;;;;0.82;0.63;;;-1.60;99.90;;;;;;4959140;28;20149;-67
2023/03/09 01:11:13;;;;;;;0.73;0.40;;;-1.70;99.90;;;;;;4959021;28;20140;-65
2023/03/09 01:13:41;;;;;;;0.40;0.40;;;-1.70;99.90;;;;;;4961030;28;20082;-67
2023/03/09 01:16:08;;;;;;;0.88;0.60;;;-1.70;99.90;;;;;;4957576;28;20069;-70
2023/03/09 01:18:37;;;;;;;0.65;0.45;;;-1.70;99.90;;;;;;4961840;28;20053;-67
2023/03/09 01:21:04;;;;;;;2.13;0.60;;;-1.70;99.90;;;;;;4959970;28;20046;-66
2023/03/09 01:23:35;;;;;;;1.98;0.45;;;-1.70;99.90;;;;;;4960034;28;20069;-69
2023/03/09 01:26:02;;;;;;;0.70;0.40;;;-1.70;99.90;;;;;;4959727;28;20476;-67
2023/03/09 01:28:28;;;;;;;0.63;0.43;;;-1.80;99.90;;;;;;4961138;28;20054;-66
2023/03/09 01:30:56;;;;;;;1.50;0.32;;;-1.80;99.90;;;;;;4961617;28;20054;-67
2023/03/09 01:33:22;;;;;;;1.75;0.70;;;-1.80;99.90;;;;;;4958191;28;20584;-66
2023/03/09 01:35:50;;;;;;;0.60;0.60;;;-1.80;99.90;;;;;;4958304;28;20134;-67
2023/03/09 01:38:18;;;;;;;2.67;0.88;;;-1.80;99.90;;;;;;4957033;28;20603;-66
2023/03/09 01:40:46;;;;;;;2.17;0.82;;;-1.80;99.90;;;;;;4958659;28;20085;-68
2023/03/09 01:43:34;;;;;;;2.97;0.98;;;-1.90;99.90;;;;;;4959485;28;21490;-66
2023/03/09 01:46:20;;;;;;;0.63;0.45;;;-1.80;99.90;;;;;;4957496;28;20093;-66
2023/03/09 01:48:51;;;;;;;2.72;1.42;;;-1.80;99.90;;;;;;4960976;28;20055;-67
2023/03/09 01:51:19;;;;;;;0.98;0.55;;;-1.80;99.90;;;;;;4960032;28;20078;-66
2023/03/09 01:53:48;;;;;;;2.00;0.57;;;-1.80;99.90;;;;;;4960762;28;20185;-67
2023/03/09 01:56:19;;;;;;;0.63;0.60;;;-1.80;99.90;;;;;;4958120;28;21398;-66
2023/03/09 01:58:48;;;;;;;0.70;0.65;;;-1.80;99.90;;;;;;4991622;28;20061;-67
2023/03/09 02:01:15;;;;;;;0.88;0.40;;;-1.80;99.90;;;;;;4958387;28;20132;-69
2023/03/09 02:03:47;;;;;;;2.55;0.77;;;-1.90;99.90;;;;;;4992329;28;20649;-69
2023/03/09 02:06:17;;;;;;;0.52;0.30;;;-1.90;99.90;;;;;;4957175;28;20057;-69
2023/03/09 02:09:09;;;;;;;1.80;0.52;;;-1.90;99.90;;;;;;4958906;28;20050;-66
2023/03/09 02:11:37;;;;;;;2.55;0.50;;;-2.00;99.90;;;;;;4960616;28;21536;-69
2023/03/09 02:14:07;;;;;;;1.08;0.52;;;-2.00;99.90;;;;;;4956162;28;20054;-66
2023/03/09 02:16:34;;;;;;;1.00;0.70;;;-2.00;99.90;;;;;;4959307;28;20047;-67
2023/03/09 02:19:01;;;;;;;1.13;0.82;;;-2.00;99.90;;;;;;4959394;28;20062;-68
2023/03/09 02:21:47;;;;;;;0.50;0.30;;;-2.10;99.90;;;;;;4958931;28;20493;-67
2023/03/09 02:24:41;;;;;;;2.33;0.50;;;-2.10;99.90;;;;;;4957474;28;20059;-66
2023/03/09 02:27:23;;;;;;;0.98;0.73;;;-2.10;99.90;;;;;;4950514;28;20069;-68
2023/03/09 02:29:51;;;;;;;2.33;0.68;;;-2.10;99.90;;;;;;4959059;28;20055;-67
2023/03/09 02:32:19;;;;;;;0.85;0.40;;;-2.20;99.90;;;;;;4956523;28;20077;-66
2023/03/09 02:34:46;;;;;;;0.57;0.45;;;-2.20;99.90;;;;;;4960975;28;20515;-67
2023/03/09 02:37:35;;;;;;;1.80;0.70;;;-2.20;99.90;;;;;;4942553;28;20046;-68
2023/03/09 02:40:28;;;;;;;1.05;0.60;;;-2.20;99.90;;;;;;4956973;28;20060;-67
2023/03/09 02:43:01;;;;;;;0.95;0.63;;;-2.20;99.90;;;;;;4961533;28;20042;-66
2023/03/09 02:45:29;;;;;;;1.48;1.08;;;-2.20;99.90;;;;;;4960487;28;20087;-69
2023/03/09 02:47:57;;;;;;;2.50;1.08;;;-2.20;99.90;;;;;;4956968;28;20060;-67
2023/03/09 02:50:24;;;;;;;1.42;0.93;;;-2.20;99.90;;;;;;4961683;28;20062;-67
2023/03/09 02:52:51;;;;;;;0.28;0.28;;;-2.30;99.90;;;;;;4964246;28;20050;-68
2023/03/09 02:55:18;;;;;;;2.55;1.30;;;-2.30;99.90;;;;;;4962970;28;20064;-69
2023/03/09 02:57:46;;;;;;;0.90;0.52;;;-2.40;99.90;;;;;;4961344;28;20059;-68
2023/03/09 03:00:16;;;;;;;;;;;-2.40;99.90;;;;;;4962041;28;20055;-66
2023/03/09 03:02:43;;;;;;;2.03;0.50;;;-2.40;99.90;;;;;;4961203;28;20053;-69
2023/03/09 03:05:10;;;;;;;0.80;0.52;;;-2.40;99.90;;;;;;4962628;28;20725;-66
2023/03/09 03:07:40;;;;;;;0.88;0.40;;;-2.40;99.90;;;;;;4990999;28;20047;-67
2023/03/09 03:10:09;;;;;;;0.98;0.30;;;-2.50;99.90;;;;;;4956449;28;20138;-67
2023/03/09 03:12:37;;;;;;;0.95;0.55;;;-2.60;99.90;;;;;;4958562;28;20055;-66
2023/03/09 03:15:06;;;;;;;0.85;0.65;;;-2.60;99.90;;;;;;4962901;28;20618;-65
2023/03/09 03:17:33;;;;;;;4.15;2.30;;;-2.70;99.90;;;;;;4960837;28;20540;-69
2023/03/09 03:20:02;;;;;;;2.17;1.33;;;-2.80;99.90;;;;;;4992552;28;20058;-66
2023/03/09 03:22:29;;;;;;;1.15;0.55;;;-2.90;99.90;;;;;;4960207;28;20046;-67
2023/03/09 03:24:56;;;;;;;1.60;1.00;;;-3.10;99.90;;;;;;4963196;28;20081;-68
2023/03/09 03:27:24;;;;;;;0.98;0.82;;;-3.20;99.90;;;;;;4958417;28;20061;-65
2023/03/09 03:29:52;;;;;;;1.25;0.80;;;-3.40;99.90;;;;;;4962542;28;20412;-68
2023/03/09 03:32:19;;;;;;;0.98;0.98;;;-3.70;99.90;;;;;;4959047;28;20152;-66
2023/03/09 03:34:46;;;;;;;1.25;0.70;;;-4.10;99.90;;;;;;4962041;28;20541;-66
2023/03/09 03:37:14;;;;;;;2.17;1.80;;;-4.30;99.90;;;;;;4959974;28;20063;-70
2023/03/09 03:39:42;;;;;;;2.95;1.05;;;-4.60;99.90;;;;;;4994106;28;20061;-65
2023/03/09 03:42:09;;;;;;;1.27;0.90;;;-4.80;99.90;;;;;;4961436;28;20145;-67
2023/03/09 03:44:36;;;;;;;1.23;0.83;;;-4.90;99.90;;;;;;4963206;28;20175;-68
2023/03/09 03:47:03;;;;;;;2.03;0.93;;;-5.10;99.90;;;;;;4960468;28;20108;-67
2023/03/09 03:49:31;;;;;;;3.13;0.80;;;-5.40;99.90;;;;;;4962737;28;20065;-66
2023/03/09 03:52:01;;;;;;;1.17;1.00;;;-5.50;99.90;;;;;;4991344;28;20061;-68
2023/03/09 03:54:28;;;;;;;0.70;0.60;;;-5.70;99.90;;;;;;4962230;28;20054;-68
2023/03/09 03:56:57;;;;;;;2.20;1.00;;;-5.80;99.90;;;;;;4944781;28;20051;-70
2023/03/09 03:59:24;;;;;;;5.07;1.20;;;-5.90;99.90;;;;;;4993216;28;20043;-67
2023/03/09 04:01:51;;;;;;;3.97;1.10;;;-6.00;99.90;;;;;;4961106;28;20057;-68
2023/03/09 04:04:18;;;;;;;2.90;1.40;;;-6.20;99.90;;;;;;4959669;28;20051;-70
2023/03/09 04:06:49;;;;;;;5.23;1.13;;;-6.20;99.90;;;;;;4993517;28;20057;-68
2023/03/09 04:09:19;;;;;;;2.35;1.35;;;-6.30;99.90;;;;;;4961747;28;20051;-68
2023/03/09 04:11:46;;;;;;;2.20;0.90;;;-6.40;99.90;;;;;;4993813;28;20454;-65
2023/03/09 04:14:13;;;;;;;1.40;0.80;;;-6.50;99.90;;;;;;4959368;28;20073;-67
2023/03/09 04:16:40;;;;;;;0.97;0.73;;;-6.60;99.90;;;;;;4961696;28;20101;-67
2023/03/09 04:19:07;;;;;;;1.30;0.80;;;-6.70;99.90;;;;;;4961449;28;20494;-68
2023/03/09 04:21:37;;;;;;;1.90;0.73;;;-6.80;99.90;;;;;;4993291;28;20524;-66
2023/03/09 04:24:04;;;;;;;0.77;0.57;;;-6.90;99.90;;;;;;4959133;28;20428;-66
2023/03/09 04:26:32;;;;;;;0.70;0.57;;;-7.00;99.90;;;;;;4962601;28;20047;-66
2023/03/09 04:29:07;;;;;;;1.17;0.80;;;-7.10;99.90;;;;;;4961988;28;20054;-65
2023/03/09 04:31:35;;;;;;;1.90;0.83;;;-7.10;99.90;;;;;;4961506;28;20054;-65
2023/03/09 04:34:02;;;;;;;0.80;0.80;;;-7.20;99.90;;;;;;4960005;28;20873;-70
2023/03/09 04:36:30;;;;;;;17.83;2.87;;;-7.30;99.90;;;;;;4960163;28;20046;-67
2023/03/09 04:38:58;;;;;;;3.20;1.00;;;-7.30;99.90;;;;;;4961317;28;20417;-65
2023/03/09 04:41:28;;;;;;;1.83;0.67;;;-7.40;99.90;;;;;;4959851;28;20074;-66
2023/03/09 04:43:58;;;;;;;5.93;0.73;;;-7.40;99.90;;;;;;4959557;28;20050;-68
2023/03/09 04:46:25;;;;;;;1.37;0.80;;;-7.60;99.90;;;;;;4962084;28;20134;-69
2023/03/09 04:48:56;;;;;;;3.63;1.10;;;-7.70;99.90;;;;;;4993061;28;20109;-66
2023/03/09 04:51:23;;;;;;;1.63;1.43;;;-7.70;99.90;;;;;;4973661;28;21381;-65
2023/03/09 04:53:52;;;;;;;0.90;0.90;;;-7.80;99.90;;;;;;4961002;28;20071;-67
2023/03/09 04:56:22;;;;;;;1.25;1.05;;;-7.90;99.90;;;;;;4958555;28;20074;-68
2023/03/09 04:58:55;;;;;;;3.27;0.80;;;-8.00;99.90;;;;;;4961088;28;20128;-66
2023/03/09 05:01:24;;;;;;;1.33;0.98;;;-8.00;99.90;;;;;;4960312;28;20181;-64
2023/03/09 05:03:53;;;;;;;1.63;0.93;;;-8.10;99.90;;;;;;4960146;28;20486;-68
2023/03/09 05:06:20;;;;;;;3.73;1.10;;;-8.20;99.90;;;;;;4990591;28;20057;-67
2023/03/09 05:08:47;;;;;;;1.77;0.90;;;-8.20;99.90;;;;;;4960132;28;20057;-67
2023/03/09 05:11:14;;;;;;;6.17;2.40;;;-8.30;99.90;;;;;;4960161;28;20062;-70
2023/03/09 05:13:42;;;;;;;5.53;1.13;;;-8.30;99.90;;;;;;4960551;28;20062;-68
2023/03/09 05:16:13;;;;;;;2.70;1.47;;;-8.40;99.90;;;;;;4959156;28;21563;-66
2023/03/09 05:18:43;;;;;;;3.88;1.38;;;-8.40;99.90;;;;;;4959952;28;20058;-67
2023/03/09 05:21:12;;;;;;;6.13;2.60;;;-8.50;99.90;;;;;;4959506;28;20051;-65
2023/03/09 05:23:40;;;;;;;7.13;4.73;;;-8.50;99.90;;;;;;4960112;28;20065;-66
2023/03/09 05:26:07;;;;;;;8.73;6.10;;;-8.50;99.90;;;;;;4958208;28;20082;-67
2023/03/09 05:28:38;;;;;;;11.47;6.60;;;-8.60;99.90;;;;;;4992219;28;20126;-66
2023/03/09 05:31:11;;;;;;;11.55;8.63;;;-8.60;99.90;;;;;;4960043;28;20077;-69
2023/03/09 05:33:39;;;;;;;11.13;8.37;;;-8.70;99.90;;;;;;4975622;28;20113;-68
2023/03/09 05:36:26;;;;;;;14.43;10.17;;;-8.70;99.90;;;;;;4990598;28;20157;-67
2023/03/09 05:38:56;;;;;;;11.87;9.67;;;-8.70;99.90;;;;;;4954019;28;20145;-67
2023/03/09 05:41:24;;;;;;;4.63;3.80;;;-8.70;99.90;;;;;;4958522;28;20863;-67
2023/03/09 05:44:00;;;;;;;18.40;3.03;;;-8.70;99.90;;;;;;4958552;28;20085;-66
2023/03/09 05:46:27;;;;;;;7.25;3.67;;;-8.70;99.90;;;;;;4960446;28;20869;-66
2023/03/09 05:48:54;;;;;;;7.70;4.20;;;-8.70;99.90;;;;;;4960302;28;20049;-67
2023/03/09 05:51:21;;;;;;;7.23;3.33;;;-8.70;99.90;;;;;;4959345;28;20061;-66
2023/03/09 05:53:51;;;;;;;8.75;2.25;;;-8.70;99.90;;;;;;4991458;28;20390;-68
2023/03/09 05:56:19;;;;;;;3.93;1.93;;;-8.70;99.90;;;;;;4957696;28;20288;-66
2023/03/09 05:58:50;;;;;;;11.47;1.97;;;-8.70;99.90;;;;;;4960503;28;20132;-67
2023/03/09 06:01:25;;;;;;;3.67;2.73;;;-8.70;99.90;;;;;;4957693;28;20138;-71
2023/03/09 06:03:57;;;;;;;6.83;3.00;;;-8.70;99.90;;;;;;4958111;28;20042;-66
2023/03/09 06:06:25;;;;;;;4.60;2.80;;;-8.70;99.90;;;;;;4990451;28;20058;-68
2023/03/09 06:08:52;;;;;;;12.50;3.87;;;-8.70;99.90;;;;;;4959227;28;20129;-66
2023/03/09 06:11:19;;;;;;;11.70;5.10;;;-8.70;99.90;;;;;;4961177;28;20054;-68
2023/03/09 06:13:46;;;;;;;9.87;5.87;;;-8.70;99.90;;;;;;4959666;28;20189;-65
2023/03/09 06:16:15;;;;;;;10.43;5.67;;;-8.60;99.90;;;;;;4989570;28;20240;-68
2023/03/09 06:18:43;;;;;;;10.23;6.45;;;-8.60;99.90;;;;;;4958029;28;20134;-67
2023/03/09 06:21:13;;;;;;;12.80;6.50;;;-8.60;99.90;;;;;;4958387;28;20050;-66
2023/03/09 06:23:41;;;;;;;11.17;5.20;;;-8.60;99.90;;;;;;4989791;28;20123;-67
2023/03/09 06:26:12;;;;;;;8.75;5.18;;;-8.50;99.90;;;;;;4990189;28;20054;-68
2023/03/09 06:28:46;;;;;;;9.70;5.23;;;-8.50;99.90;;;;;;4957545;28;20043;-69
2023/03/09 06:31:14;;;;;;;7.72;5.72;;;-8.30;99.90;;;;;;4958437;28;20521;-69
2023/03/09 06:33:46;;;;;;;9.20;5.80;;;-8.30;99.90;;;;;;4957992;28;20060;-69
2023/03/09 06:36:17;;;;;;;10.27;5.65;;;-8.20;99.90;;;;;;4958468;28;20053;-66
2023/03/09 06:38:46;;;;;;;11.97;6.27;;;-8.10;99.90;;;;;;4958223;28;20054;-66
2023/03/09 06:41:15;;;;;;;16.73;6.87;;;-8.00;99.90;;;;;;4958390;28;20050;-69
2023/03/09 06:43:45;;;;;;;12.93;6.32;;;-7.90;99.90;;;;;;4959270;28;20615;-70
2023/03/09 06:46:49;;;;;;;8.97;5.93;;;-7.80;99.90;;;;;;4955427;28;20046;-68
2023/03/09 06:49:19;;;;;;;9.13;5.77;;;-7.60;99.90;;;;;;4958103;28;20061;-70
2023/03/09 06:51:46;;;;;;;7.77;5.80;;;-7.50;99.90;;;;;;4958684;28;20047;-68
2023/03/09 06:54:14;;;;;;;11.33;6.40;;;-7.40;99.90;;;;;;4953555;28;25346;-69
2023/03/09 06:56:48;;;;;;;6.50;5.30;;;-7.20;99.90;;;;;;4958424;28;20500;-68
2023/03/09 06:59:15;;;;;;;21.70;6.60;;;-7.10;99.90;;;;;;4960003;28;20109;-66
2023/03/09 07:01:42;;;;;;;21.50;7.00;;;-6.90;99.90;;;;;;4959619;28;20437;-67
2023/03/09 07:04:11;;;;;;;6.27;5.33;;;-6.80;99.90;;;;;;4956330;28;20078;-69
2023/03/09 07:06:37;;;;;;;9.67;5.80;;;-6.60;99.90;;;;;;4959945;28;20144;-67
2023/03/09 07:09:04;;;;;;;13.97;5.80;;;-6.50;99.90;;;;;;4990172;28;20101;-65
2023/03/09 07:11:31;;;;;;;6.60;4.63;;;-6.30;99.90;;;;;;4960287;28;20057;-67
2023/03/09 07:13:58;;;;;;;5.83;4.70;;;-6.10;99.90;;;;;;4958404;28;20046;-67
2023/03/09 07:16:26;;;;;;;9.17;4.37;;;-6.00;99.90;;;;;;4960620;28;20073;-65
2023/03/09 07:18:52;;;;;;;9.07;4.37;;;-5.80;99.90;;;;;;4959136;28;20054;-67
2023/03/09 07:21:19;;;;;;;5.60;4.27;;;-5.70;99.90;;;;;;4960627;28;20049;-66
2023/03/09 07:23:47;;;;;;;19.97;8.53;;;-5.50;99.90;;;;;;4959027;28;20051;-66
2023/03/09 07:26:14;;;;;;;6.13;3.90;;;-5.40;99.90;;;;;;4958543;28;20961;-67
2023/03/09 07:28:41;;;;;;;5.53;4.20;;;-5.30;99.90;;;;;;4960076;28;20069;-68
2023/03/09 07:31:12;;;;;;;5.93;4.40;;;-5.10;99.90;;;;;;4960041;28;20051;-69
2023/03/09 07:33:39;;;;;;;4.50;3.20;;;-5.00;99.90;;;;;;4959915;28;20065;-68
2023/03/09 07:36:07;;;;;;;4.13;3.73;;;-4.80;99.90;;;;;;4960108;28;20060;-67
2023/03/09 07:38:34;;;;;;;7.50;4.83;;;-4.60;99.90;;;;;;4963930;28;20130;-68
2023/03/09 07:41:02;;;;;;;6.30;3.43;;;-4.40;99.90;;;;;;4963943;28;20059;-65
2023/03/09 07:43:29;;;;;;;5.10;3.23;;;-4.30;99.90;;;;;;4963405;28;20129;-65
2023/03/09 07:46:06;;;;;;;3.20;2.03;;;-4.10;99.90;;;;;;4960687;28;20117;-64
2023/03/09 07:48:32;;;;;;;;;;;-3.90;99.90;;;;;;4963560;28;20635;-66
2023/03/09 07:51:00;;;;;;;4.93;2.43;;;-3.70;99.90;;;;;;4962337;28;19926;-67
2023/03/09 07:53:30;;;;;;;7.23;3.00;;;-3.50;99.90;;;;;;4962969;28;20624;-66
2023/03/09 07:56:00;;;;;;;3.92;2.60;;;-3.30;99.90;;;;;;4960605;28;20054;-65
2023/03/09 07:58:27;;;;;;;;;;;-3.20;99.90;;;;;;4963269;28;20055;-67
2023/03/09 08:00:54;;;;;;;2.57;1.87;;;-3.10;99.90;;;;;;4961579;28;20456;-68
2023/03/09 08:03:21;;;;;;;5.18;2.13;;;-2.90;99.90;;;;;;4962615;28;20149;-65
2023/03/09 08:05:49;;;;;;;4.43;1.23;;;-2.80;99.90;;;;;;4962449;28;20042;-66
2023/03/09 08:08:16;;;;;;;1.20;0.93;;;-2.70;99.90;;;;;;4960873;28;20050;-66
2023/03/09 08:10:48;;;;;;;3.33;0.98;;;-2.40;99.90;;;;;;4961910;28;20053;-67
2023/03/09 08:13:15;;;;;;;2.78;1.00;;;-2.20;99.90;;;;;;4962485;28;20141;-67
2023/03/09 08:15:42;;;;;;;0.63;0.60;;;-2.10;99.90;;;;;;4962167;28;20051;-64
2023/03/09 08:18:09;;;;;;;0.70;0.40;;;-1.90;99.90;;;;;;4961304;28;20095;-67
2023/03/09 08:20:36;;;;;;;1.90;0.93;;;-1.80;99.90;;;;;;4961213;28;20046;-65
2023/03/09 08:23:03;;;;;;;0.77;0.52;;;-1.70;99.90;;;;;;4962280;28;20165;-66
2023/03/09 08:25:30;;;;;;;1.38;0.57;;;-1.60;99.90;;;;;;4962814;28;20127;-66
2023/03/09 08:27:58;;;;;;;0.40;0.40;;;-1.50;99.90;;;;;;4960390;28;20047;-67
2023/03/09 08:30:25;;;;;;;0.93;0.80;;;-1.40;99.90;;;;;;4962298;28;20051;-68
2023/03/09 08:32:53;;;;;;;1.15;0.82;;;-1.30;99.90;;;;;;4962241;28;20062;-66
2023/03/09 08:35:23;;;;;;;0.45;0.45;;;-1.20;99.90;;;;;;4961146;28;20062;-66
2023/03/09 08:37:50;;;;;;;1.45;0.90;;;-1.00;99.90;;;;;;4962598;28;20050;-67
2023/03/09 08:40:17;;;;;;;0.70;0.70;;;-0.90;99.90;;;;;;4961280;28;20076;-66
2023/03/09 08:42:44;;;;;;;0.65;0.30;;;-0.80;99.90;;;;;;4962598;28;20055;-68
2023/03/09 08:45:12;;;;;;;1.42;0.60;;;-0.70;99.90;;;;;;4961477;28;20042;-68
2023/03/09 08:47:40;;;;;;;0.52;0.47;;;-0.60;99.90;;;;;;4961618;28;20054;-69
2023/03/09 08:50:07;;;;;;;0.50;0.47;;;-0.60;99.90;;;;;;4960882;28;20046;-66
2023/03/09 08:52:37;;;;;;;0.95;0.63;;;-0.50;99.90;;;;;;4961684;28;20058;-66
2023/03/09 08:55:05;;;;;;;1.35;0.30;;;-0.40;99.90;;;;;;4961925;28;20046;-67
2023/03/09 08:57:32;;;;;;;1.25;0.50;;;-0.40;99.90;;;;;;4961253;28;20046;-66
2023/03/09 08:59:59;;;;;;;2.35;0.50;;;-0.30;99.90;;;;;;4960816;28;20050;-67
2023/03/09 09:02:28;;;;;;;3.13;0.80;;;-0.30;99.90;;;;;;4961613;28;20046;-66
2023/03/09 09:04:55;;;;;;;0.85;0.22;;;-0.10;99.90;;;;;;4962870;28;20055;-67
2023/03/09 09:07:22;;;;;;;0.70;0.28;;;0.00;99.90;;;;;;4960451;28;20384;-68
2023/03/09 09:09:49;;;;;;;1.58;0.50;;;0.00;99.90;;;;;;4961601;28;20076;-67
2023/03/09 09:12:16;;;;;;;0.85;0.50;;;0.10;99.90;;;;;;4958676;28;20769;-66
2023/03/09 09:14:43;;;;;;;0.68;0.30;;;0.10;99.90;;;;;;4961521;28;20051;-68
2023/03/09 09:17:41;;;;;;;1.42;0.57;;;0.30;99.90;;;;;;4959046;28;20051;-67
2023/03/09 09:20:09;;;;;;;3.70;0.30;;;0.40;99.90;;;;;;4959855;28;20070;-65
2023/03/09 09:22:39;;;;;;;0.65;0.60;;;0.50;99.90;;;;;;4961700;28;20464;-68
2023/03/09 09:25:08;;;;;;;0.70;0.30;;;0.60;99.90;;;;;;4961115;28;20051;-67
2023/03/09 09:27:35;;;;;;;0.88;0.60;;;0.60;99.90;;;;;;4961099;28;20137;-67
2023/03/09 09:30:05;;;;;;;1.00;0.20;;;0.50;99.90;;;;;;4959490;28;20055;-65
2023/03/09 09:32:33;;;;;;;;;;;0.50;99.90;;;;;;4961492;28;20085;-66
2023/03/09 09:35:00;;;;;;;3.67;0.85;;;0.50;99.90;;;;;;4960539;28;21111;-67
2023/03/09 09:37:28;;;;;;;1.65;1.48;;;0.50;99.90;;;;;;4961886;28;20129;-67
2023/03/09 09:39:58;;;;;;;2.58;0.20;;;0.60;99.90;;;;;;4958837;28;20054;-65
2023/03/09 09:42:38;;;;;;;4.28;0.75;;;0.60;99.90;;;;;;4960755;28;20148;-67
2023/03/09 09:45:22;;;;;;;0.65;0.55;;;0.80;99.90;;;;;;4960660;28;20052;-65
2023/03/09 09:47:50;;;;;;;0.35;0.30;;;0.90;99.90;;;;;;4959699;28;20046;-67
2023/03/09 09:50:17;;;;;;;0.63;0.30;;;1.10;99.90;;;;;;4959637;28;20462;-68
2023/03/09 09:52:48;;;;;;;0.77;0.47;;;1.10;99.90;;;;;;4960763;28;20123;-68
2023/03/09 09:55:25;;;;;;;0.20;0.20;;;1.30;99.90;;;;;;4961709;28;20145;-67
2023/03/09 09:58:36;;;;;;;0.60;0.60;;;1.40;99.90;;;;;;4958841;28;20058;-68
2023/03/09 10:01:17;;;;;;;0.82;0.80;;;1.50;99.90;;;;;;4903177;29;21643;-65
2023/03/09 10:03:46;;;;;;;0.50;0.25;;;1.50;99.90;;;;;;4952024;28;20196;-66
2023/03/09 10:06:17;;;;;;;0.43;0.30;;;1.50;99.90;;;;;;4958945;28;20046;-67
2023/03/09 10:08:57;;;;;;;1.10;0.30;;;1.60;99.90;;;;;;4961149;28;20051;-65
2023/03/09 10:11:33;;;;;;;2.22;0.60;;;1.70;99.90;;;;;;4960833;28;20047;-65
2023/03/09 10:14:06;;;;;;;1.67;0.60;;;1.70;99.90;;;;;;4957783;28;20081;-67
2023/03/09 10:16:47;;;;;;;0.40;0.20;;;1.70;99.90;;;;;;4959669;28;20076;-67
2023/03/09 10:19:16;;;;;;;3.15;1.17;;;1.60;99.90;;;;;;4961068;28;20066;-68
2023/03/09 10:22:06;;;;;;;1.13;0.47;;;1.70;99.90;;;;;;4960547;28;20047;-68
2023/03/09 10:24:43;;;;;;;1.10;0.52;;;1.80;99.90;;;;;;4958918;28;20567;-67
2023/03/09 10:27:27;;;;;;;2.90;0.45;;;1.90;99.90;;;;;;4961135;28;20133;-67
2023/03/09 10:30:09;;;;;;;0.65;0.38;;;2.00;99.90;;;;;;4959914;28;20181;-66
2023/03/09 10:32:40;;;;;;;1.52;0.52;;;2.10;99.90;;;;;;4959495;28;20098;-67
2023/03/09 10:35:16;;;;;;;0.47;0.10;;;2.20;99.90;;;;;;4959662;28;20058;-67
2023/03/09 10:37:46;;;;;;;0.75;0.10;;;2.10;99.90;;;;;;4960690;28;20046;-66
2023/03/09 10:40:21;;;;;;;;;;;2.10;99.90;;;;;;4987396;28;20698;-67
2023/03/09 10:42:48;;;;;;;0.50;0.20;;;2.10;99.90;;;;;;4959638;28;19929;-68
2023/03/09 10:45:32;;;;;;;0.63;0.20;;;2.10;99.90;;;;;;4958810;28;21492;-66
2023/03/09 10:48:03;;;;;;;0.65;0.20;;;2.20;99.90;;;;;;4956709;28;20059;-67
2023/03/09 10:51:04;;;;;;;0.45;0.20;;;2.20;99.90;;;;;;4990411;28;20069;-67
2023/03/09 10:53:35;;;;;;;1.25;0.30;;;2.20;99.90;;;;;;4960350;28;20065;-68
2023/03/09 10:56:04;;;;;;;0.90;0.20;;;2.30;99.90;;;;;;4957122;28;20067;-65
2023/03/09 10:58:33;;;;;;;1.30;0.20;;;2.30;99.90;;;;;;4961296;28;20066;-65
2023/03/09 11:01:03;;;;;;;2.50;0.25;;;2.30;99.90;;;;;;4960604;28;20411;-64
2023/03/09 11:03:34;;;;;;;1.65;0.28;;;2.30;99.90;;;;;;4960675;28;20055;-65
2023/03/09 11:06:13;;;;;;;;;;;2.30;99.90;;;;;;4958772;28;20421;-65
2023/03/09 11:08:52;;;;;;;0.30;0.10;;;2.40;99.90;;;;;;4959822;28;19934;-67
2023/03/09 11:11:40;;;;;;;1.58;0.45;;;2.60;99.90;;;;;;4964173;28;20046;-66
2023/03/09 11:14:40;;;;;;;0.22;0.10;;;2.50;99.90;;;;;;4961908;28;20170;-67
2023/03/09 11:21:06;;;;;;;2.83;0.28;;;2.30;99.90;;;;;;4940770;28;20134;-66
2023/03/09 11:23:38;;;;;;;1.88;0.35;;;2.40;99.90;;;;;;4925165;28;20057;-67
2023/03/09 11:26:36;;;;;;;1.42;0.68;;;2.30;99.90;;;;;;4939456;28;20139;-65
2023/03/09 11:29:09;;;;;;;1.27;0.73;;;2.50;99.90;;;;;;4941385;28;20066;-67
2023/03/09 11:31:39;;;;;;;0.40;0.25;;;2.40;99.90;;;;;;4940818;28;20279;-66
2023/03/09 11:34:13;;;;;;;2.53;0.20;;;2.40;99.90;;;;;;4940470;28;20541;-66
2023/03/09 11:36:53;;;;;;;0.60;0.30;;;2.40;99.90;;;;;;4940102;28;20070;-66
2023/03/09 11:39:33;;;;;;;0.73;0.30;;;2.50;99.90;;;;;;4941834;28;20066;-66
2023/03/09 11:42:04;;;;;;;1.55;0.20;;;2.40;99.90;;;;;;4939043;28;20051;-66
2023/03/09 11:44:38;;;;;;;1.02;0.60;;;2.50;99.90;;;;;;4940608;28;20182;-66
2023/03/09 11:47:22;;;;;;;0.52;0.50;;;2.40;99.90;;;;;;4940009;28;20503;-66
2023/03/09 11:49:50;;;;;;;2.03;0.22;;;2.60;99.90;;;;;;4939163;28;20054;-65
2023/03/09 11:52:30;;;;;;;0.30;0.20;;;2.50;99.90;;;;;;4959587;28;20050;-66
2023/03/09 11:54:59;;;;;;;2.50;0.45;;;2.50;99.90;;;;;;4963490;28;20047;-67
2023/03/09 11:57:27;;;;;;;2.45;0.70;;;2.50;99.90;;;;;;4962597;28;20145;-67
2023/03/09 12:00:08;;;;;;;0.95;0.30;;;2.50;99.90;;;;;;4963408;28;21333;-65
2023/03/09 12:02:59;;;;;;;1.65;0.35;;;2.50;99.90;;;;;;4960574;28;20043;-66
2023/03/09 12:05:33;;;;;;;0.30;0.22;;;2.70;99.90;;;;;;4962579;28;20125;-67
2023/03/09 12:08:20;;;;;;;0.20;0.20;;;2.70;99.90;;;;;;4960281;28;20541;-66
2023/03/09 12:11:00;;;;;;;0.50;0.15;;;2.70;99.90;;;;;;4962439;28;20049;-66
2023/03/09 12:13:37;;;;;;;0.45;0.28;;;2.70;99.90;;;;;;4961481;28;20477;-68
2023/03/09 12:16:20;;;;;;;1.15;0.40;;;2.80;99.90;;;;;;4960224;28;20047;-66
2023/03/09 12:19:01;;;;;;;0.35;0.10;;;2.90;99.90;;;;;;4959093;28;20051;-67
2023/03/09 12:21:41;;;;;;;0.10;0.10;;;2.70;99.90;;;;;;4961502;28;20047;-67
2023/03/09 12:24:25;;;;;;;0.20;0.20;;;2.60;99.90;;;;;;4959557;28;20503;-67
2023/03/09 12:27:09;;;;;;;0.43;0.20;;;2.50;99.90;;;;;;4961191;28;20062;-68
2023/03/09 12:29:47;;;;;;;1.55;0.30;;;2.60;99.90;;;;;;4963058;28;20145;-65
2023/03/09 12:32:26;;;;;;;1.17;0.47;;;2.80;99.90;;;;;;4960531;28;20508;-66
2023/03/09 12:35:02;;;;;;;0.40;0.30;;;3.00;99.90;;;;;;4962184;28;20054;-66
2023/03/09 12:37:38;;;;;;;0.85;0.22;;;3.10;99.90;;;;;;4962152;28;20046;-66
2023/03/09 12:40:20;;;;;;;0.70;0.40;;;2.90;99.90;;;;;;4959644;28;20130;-67
2023/03/09 12:42:49;;;;;;;0.50;0.43;;;2.80;99.90;;;;;;4961404;28;20046;-67
2023/03/09 12:45:16;;;;;;;0.82;0.80;;;3.00;99.90;;;;;;4961173;28;20145;-66
2023/03/09 12:47:55;;;;;;;0.50;0.30;;;3.00;99.90;;;;;;4961715;28;20763;-67
2023/03/09 12:50:48;;;;;;;0.43;0.20;;;2.80;99.90;;;;;;4959960;28;20189;-66
2023/03/09 12:53:19;;;;;;;0.73;0.40;;;2.70;99.90;;;;;;4960258;28;20058;-65
2023/03/09 12:55:58;;;;;;;1.55;0.50;;;2.90;99.90;;;;;;4961503;28;20061;-66
2023/03/09 12:58:25;;;;;;;2.15;0.60;;;2.90;99.90;;;;;;4961499;28;20190;-67
2023/03/09 13:01:05;;;;;;;3.20;0.32;;;2.90;99.90;;;;;;4961836;28;20085;-67
2023/03/09 13:03:46;;;;;;;;;;;2.80;99.90;;;;;;4963416;28;20051;-66
2023/03/09 13:06:23;;;;;;;0.55;0.30;;;2.80;99.90;;;;;;4958836;28;19930;-67
2023/03/09 13:09:15;;;;;;;0.38;0.20;;;2.90;99.90;;;;;;4960644;28;20051;-66
2023/03/09 13:12:18;;;;;;;0.40;0.30;;;2.70;99.90;;;;;;4952267;28;20053;-67
2023/03/09 13:14:46;;;;;;;2.10;0.30;;;2.80;99.90;;;;;;4935212;28;20047;-66
2023/03/09 13:17:32;;;;;;;0.73;0.30;;;2.70;99.90;;;;;;4958932;28;20046;-66